sensor_id;sensor_type;location;lat;lon;timestamp;temperature;humidity
63537;DHT22;49686;51.880;5.632;2023-02-28T00:02:17;-2.40;99.90
63537;DHT22;49686;51.880;5.632;2023-02-28T00:04:45;-2.40;99.90
63537;DHT22;49686;51.880;5.632;2023-02-28T00:07:12;-2.40;99.90
63537;DHT22;49686;51.880;5.632;2023-02-28T00:09:39;-2.40;99.90
63537;DHT22;49686;51.880;5.632;2023-02-28T00:12:07;-2.30;99.90
63537;DHT22;49686;51.880;5.632;2023-02-28T00:14:34;-2.20;99.90
63537;DHT22;49686;51.880;5.632;2023-02-28T00:17:01;-2.10;99.90
63537;DHT22;49686;51.880;5.632;2023-02-28T00:19:28;-2.00;99.90
63537;DHT22;49686;51.880;5.632;2023-02-28T00:21:54;-2.00;99.90
63537;DHT22;49686;51.880;5.632;2023-02-28T00:24:21;-1.90;99.90
63537;DHT22;49686;51.880;5.632;2023-02-28T00:26:48;-2.00;99.90
63537;DHT22;49686;51.880;5.632;2023-02-28T00:29:19;-1.90;99.90
63537;DHT22;49686;51.880;5.632;2023-02-28T00:31:45;-1.80;99.90
63537;DHT22;49686;51.880;5.632;2023-02-28T00:34:12;-1.80;99.90
63537;DHT22;49686;51.880;5.632;2023-02-28T00:36:39;-1.60;99.90
63537;DHT22;49686;51.880;5.632;2023-02-28T00:39:06;-1.60;99.90
63537;DHT22;49686;51.880;5.632;2023-02-28T00:41:33;-1.60;99.90
63537;DHT22;49686;51.880;5.632;2023-02-28T00:43:59;-1.50;99.90
63537;DHT22;49686;51.880;5.632;2023-02-28T00:46:27;-1.50;99.90
63537;DHT22;49686;51.880;5.632;2023-02-28T00:48:54;-1.40;99.90
63537;DHT22;49686;51.880;5.632;2023-02-28T00:51:21;-1.30;99.90
63537;DHT22;49686;51.880;5.632;2023-02-28T00:53:48;-1.20;99.90
63537;DHT22;49686;51.880;5.632;2023-02-28T00:56:15;-1.20;99.90
63537;DHT22;49686;51.880;5.632;2023-02-28T00:58:42;-1.10;99.90
63537;DHT22;49686;51.880;5.632;2023-02-28T01:01:09;-1.00;99.90
63537;DHT22;49686;51.880;5.632;2023-02-28T01:03:37;-1.00;99.90
63537;DHT22;49686;51.880;5.632;2023-02-28T01:06:04;-1.00;99.90
63537;DHT22;49686;51.880;5.632;2023-02-28T01:08:31;-1.10;99.90
63537;DHT22;49686;51.880;5.632;2023-02-28T01:11:07;-1.10;99.90
63537;DHT22;49686;51.880;5.632;2023-02-28T01:13:34;-1.00;99.90
63537;DHT22;49686;51.880;5.632;2023-02-28T01:16:01;-1.00;99.90
63537;DHT22;49686;51.880;5.632;2023-02-28T01:18:27;-1.00;99.90
63537;DHT22;49686;51.880;5.632;2023-02-28T01:20:55;-0.90;99.90
63537;DHT22;49686;51.880;5.632;2023-02-28T01:23:23;-0.90;99.90
63537;DHT22;49686;51.880;5.632;2023-02-28T01:25:51;-0.90;99.90
63537;DHT22;49686;51.880;5.632;2023-02-28T01:28:17;-0.90;99.90
63537;DHT22;49686;51.880;5.632;2023-02-28T01:30:48;-0.90;99.90
63537;DHT22;49686;51.880;5.632;2023-02-28T01:33:15;-0.90;99.90
63537;DHT22;49686;51.880;5.632;2023-02-28T01:35:42;-0.90;99.90
63537;DHT22;49686;51.880;5.632;2023-02-28T01:38:10;-0.90;99.90
63537;DHT22;49686;51.880;5.632;2023-02-28T01:40:48;-0.90;99.90
63537;DHT22;49686;51.880;5.632;2023-02-28T01:43:20;-0.90;99.90
63537;DHT22;49686;51.880;5.632;2023-02-28T01:45:47;-0.90;99.90
63537;DHT22;49686;51.880;5.632;2023-02-28T01:48:14;-0.90;99.90
63537;DHT22;49686;51.880;5.632;2023-02-28T01:50:43;-0.90;99.90
63537;DHT22;49686;51.880;5.632;2023-02-28T01:53:15;-0.90;99.90
63537;DHT22;49686;51.880;5.632;2023-02-28T01:55:47;-0.90;99.90
63537;DHT22;49686;51.880;5.632;2023-02-28T01:58:15;-1.00;99.90
63537;DHT22;49686;51.880;5.632;2023-02-28T02:00:42;-0.90;99.90
63537;DHT22;49686;51.880;5.632;2023-02-28T02:03:14;-0.90;99.90
63537;DHT22;49686;51.880;5.632;2023-02-28T02:05:43;-1.00;99.90
63537;DHT22;49686;51.880;5.632;2023-02-28T02:08:16;-1.00;99.90
63537;DHT22;49686;51.880;5.632;2023-02-28T02:10:44;-1.00;99.90
63537;DHT22;49686;51.880;5.632;2023-02-28T02:13:23;-1.00;99.90
63537;DHT22;49686;51.880;5.632;2023-02-28T02:15:57;-1.00;99.90
63537;DHT22;49686;51.880;5.632;2023-02-28T02:18:32;-1.00;99.90
63537;DHT22;49686;51.880;5.632;2023-02-28T02:21:35;-1.00;99.90
63537;DHT22;49686;51.880;5.632;2023-02-28T02:24:29;-1.00;99.90
63537;DHT22;49686;51.880;5.632;2023-02-28T02:27:16;-1.00;99.90
63537;DHT22;49686;51.880;5.632;2023-02-28T02:30:23;-1.00;99.90
63537;DHT22;49686;51.880;5.632;2023-02-28T02:33:22;-1.00;99.90
63537;DHT22;49686;51.880;5.632;2023-02-28T02:35:54;-1.00;99.90
63537;DHT22;49686;51.880;5.632;2023-02-28T02:38:31;-1.00;99.90
63537;DHT22;49686;51.880;5.632;2023-02-28T02:41:05;-1.00;99.90
63537;DHT22;49686;51.880;5.632;2023-02-28T02:43:37;-1.00;99.90
63537;DHT22;49686;51.880;5.632;2023-02-28T02:46:09;-1.00;99.90
63537;DHT22;49686;51.880;5.632;2023-02-28T02:48:39;-1.00;99.90
63537;DHT22;49686;51.880;5.632;2023-02-28T02:51:13;-1.00;99.90
63537;DHT22;49686;51.880;5.632;2023-02-28T02:53:44;-1.00;99.90
63537;DHT22;49686;51.880;5.632;2023-02-28T02:56:12;-1.00;99.90
63537;DHT22;49686;51.880;5.632;2023-02-28T02:58:42;-1.00;99.90
63537;DHT22;49686;51.880;5.632;2023-02-28T03:01:12;-1.00;99.90
63537;DHT22;49686;51.880;5.632;2023-02-28T03:03:40;-0.90;99.90
63537;DHT22;49686;51.880;5.632;2023-02-28T03:06:09;-1.00;99.90
63537;DHT22;49686;51.880;5.632;2023-02-28T03:08:37;-0.90;99.90
63537;DHT22;49686;51.880;5.632;2023-02-28T03:11:06;-0.90;99.90
63537;DHT22;49686;51.880;5.632;2023-02-28T03:14:10;-1.00;99.90
63537;DHT22;49686;51.880;5.632;2023-02-28T03:16:53;-0.90;99.90
63537;DHT22;49686;51.880;5.632;2023-02-28T03:19:36;-0.80;99.90
63537;DHT22;49686;51.880;5.632;2023-02-28T03:22:26;-0.80;99.90
63537;DHT22;49686;51.880;5.632;2023-02-28T03:25:02;-0.70;99.90
63537;DHT22;49686;51.880;5.632;2023-02-28T03:27:36;-0.70;99.90
63537;DHT22;49686;51.880;5.632;2023-02-28T03:30:10;-0.60;99.90
63537;DHT22;49686;51.880;5.632;2023-02-28T03:32:42;-0.60;99.90
63537;DHT22;49686;51.880;5.632;2023-02-28T03:35:16;-0.60;99.90
63537;DHT22;49686;51.880;5.632;2023-02-28T03:37:47;-0.50;99.90
63537;DHT22;49686;51.880;5.632;2023-02-28T03:40:17;-0.60;99.90
63537;DHT22;49686;51.880;5.632;2023-02-28T03:42:49;-0.50;99.90
63537;DHT22;49686;51.880;5.632;2023-02-28T03:45:20;-0.60;99.90
63537;DHT22;49686;51.880;5.632;2023-02-28T03:47:52;-0.60;99.90
63537;DHT22;49686;51.880;5.632;2023-02-28T03:50:22;-0.60;99.90
63537;DHT22;49686;51.880;5.632;2023-02-28T03:52:56;-0.60;99.90
63537;DHT22;49686;51.880;5.632;2023-02-28T03:55:25;-0.60;99.90
63537;DHT22;49686;51.880;5.632;2023-02-28T03:57:58;-0.60;99.90
63537;DHT22;49686;51.880;5.632;2023-02-28T04:00:29;-0.50;99.90
63537;DHT22;49686;51.880;5.632;2023-02-28T04:02:57;-0.50;99.90
63537;DHT22;49686;51.880;5.632;2023-02-28T04:05:24;-0.50;99.90
63537;DHT22;49686;51.880;5.632;2023-02-28T04:07:53;-0.50;99.90
63537;DHT22;49686;51.880;5.632;2023-02-28T04:10:20;-0.50;99.90
63537;DHT22;49686;51.880;5.632;2023-02-28T04:12:47;-0.50;99.90
63537;DHT22;49686;51.880;5.632;2023-02-28T04:15:13;-0.50;99.90
63537;DHT22;49686;51.880;5.632;2023-02-28T04:17:40;-0.50;99.90
63537;DHT22;49686;51.880;5.632;2023-02-28T04:20:08;-0.40;99.90
63537;DHT22;49686;51.880;5.632;2023-02-28T04:22:35;-0.50;99.90
63537;DHT22;49686;51.880;5.632;2023-02-28T04:25:05;-0.50;99.90
63537;DHT22;49686;51.880;5.632;2023-02-28T04:27:32;-0.50;99.90
63537;DHT22;49686;51.880;5.632;2023-02-28T04:29:59;-0.50;99.90
63537;DHT22;49686;51.880;5.632;2023-02-28T04:32:26;-0.50;99.90
63537;DHT22;49686;51.880;5.632;2023-02-28T04:34:52;-0.50;99.90
63537;DHT22;49686;51.880;5.632;2023-02-28T04:37:19;-0.50;99.90
63537;DHT22;49686;51.880;5.632;2023-02-28T04:39:46;-0.50;99.90
63537;DHT22;49686;51.880;5.632;2023-02-28T04:42:15;-0.50;99.90
63537;DHT22;49686;51.880;5.632;2023-02-28T04:44:42;-0.50;99.90
63537;DHT22;49686;51.880;5.632;2023-02-28T04:47:10;-0.50;99.90
63537;DHT22;49686;51.880;5.632;2023-02-28T04:49:37;-0.50;99.90
63537;DHT22;49686;51.880;5.632;2023-02-28T04:52:05;-0.40;99.90
63537;DHT22;49686;51.880;5.632;2023-02-28T04:54:32;-0.50;99.90
63537;DHT22;49686;51.880;5.632;2023-02-28T04:56:58;-0.40;99.90
63537;DHT22;49686;51.880;5.632;2023-02-28T04:59:27;-0.50;99.90
63537;DHT22;49686;51.880;5.632;2023-02-28T05:01:54;-0.50;99.90
63537;DHT22;49686;51.880;5.632;2023-02-28T05:04:21;-0.40;99.90
63537;DHT22;49686;51.880;5.632;2023-02-28T05:06:48;-0.50;99.90
63537;DHT22;49686;51.880;5.632;2023-02-28T05:09:15;-0.40;99.90
63537;DHT22;49686;51.880;5.632;2023-02-28T05:11:41;-0.50;99.90
63537;DHT22;49686;51.880;5.632;2023-02-28T05:14:11;-0.50;99.90
63537;DHT22;49686;51.880;5.632;2023-02-28T05:16:39;-0.50;99.90
63537;DHT22;49686;51.880;5.632;2023-02-28T05:19:06;-0.50;99.90
63537;DHT22;49686;51.880;5.632;2023-02-28T05:21:35;-0.50;99.90
63537;DHT22;49686;51.880;5.632;2023-02-28T05:24:03;-0.50;99.90
63537;DHT22;49686;51.880;5.632;2023-02-28T05:26:34;-0.50;99.90
63537;DHT22;49686;51.880;5.632;2023-02-28T05:29:02;-0.50;99.90
63537;DHT22;49686;51.880;5.632;2023-02-28T05:31:29;-0.60;99.90
63537;DHT22;49686;51.880;5.632;2023-02-28T05:33:58;-0.50;99.90
63537;DHT22;49686;51.880;5.632;2023-02-28T05:36:25;-0.60;99.90
63537;DHT22;49686;51.880;5.632;2023-02-28T05:38:52;-0.60;99.90
63537;DHT22;49686;51.880;5.632;2023-02-28T05:41:19;-0.60;99.90
63537;DHT22;49686;51.880;5.632;2023-02-28T05:43:47;-0.60;99.90
63537;DHT22;49686;51.880;5.632;2023-02-28T05:46:14;-0.60;99.90
63537;DHT22;49686;51.880;5.632;2023-02-28T05:48:42;-0.60;99.90
63537;DHT22;49686;51.880;5.632;2023-02-28T05:51:10;-0.70;99.90
63537;DHT22;49686;51.880;5.632;2023-02-28T05:53:37;-0.70;99.90
63537;DHT22;49686;51.880;5.632;2023-02-28T05:56:04;-0.70;99.90
63537;DHT22;49686;51.880;5.632;2023-02-28T05:58:31;-0.70;99.90
63537;DHT22;49686;51.880;5.632;2023-02-28T06:00:59;-0.70;99.90
63537;DHT22;49686;51.880;5.632;2023-02-28T06:03:26;-0.60;99.90
63537;DHT22;49686;51.880;5.632;2023-02-28T06:05:53;-0.70;99.90
63537;DHT22;49686;51.880;5.632;2023-02-28T06:08:21;-0.70;99.90
63537;DHT22;49686;51.880;5.632;2023-02-28T06:10:48;-0.70;99.90
63537;DHT22;49686;51.880;5.632;2023-02-28T06:13:15;-0.70;99.90
63537;DHT22;49686;51.880;5.632;2023-02-28T06:15:42;-0.70;99.90
63537;DHT22;49686;51.880;5.632;2023-02-28T06:18:09;-0.70;99.90
63537;DHT22;49686;51.880;5.632;2023-02-28T06:20:35;-0.70;99.90
63537;DHT22;49686;51.880;5.632;2023-02-28T06:23:02;-0.70;99.90
63537;DHT22;49686;51.880;5.632;2023-02-28T06:25:30;-0.70;99.90
63537;DHT22;49686;51.880;5.632;2023-02-28T06:27:57;-0.70;99.90
63537;DHT22;49686;51.880;5.632;2023-02-28T06:30:24;-0.70;99.90
63537;DHT22;49686;51.880;5.632;2023-02-28T06:32:51;-0.70;99.90
63537;DHT22;49686;51.880;5.632;2023-02-28T06:35:21;-0.70;99.90
63537;DHT22;49686;51.880;5.632;2023-02-28T06:37:48;-0.70;99.90
63537;DHT22;49686;51.880;5.632;2023-02-28T06:40:15;-0.70;99.90
63537;DHT22;49686;51.880;5.632;2023-02-28T06:42:48;-0.60;99.90
63537;DHT22;49686;51.880;5.632;2023-02-28T06:45:15;-0.60;99.90
63537;DHT22;49686;51.880;5.632;2023-02-28T06:47:42;-0.50;99.90
63537;DHT22;49686;51.880;5.632;2023-02-28T06:50:12;-0.50;99.90
63537;DHT22;49686;51.880;5.632;2023-02-28T06:52:38;-0.50;99.90
63537;DHT22;49686;51.880;5.632;2023-02-28T06:55:09;-0.50;99.90
63537;DHT22;49686;51.880;5.632;2023-02-28T06:57:39;-0.50;99.90
63537;DHT22;49686;51.880;5.632;2023-02-28T07:00:11;-0.40;99.90
63537;DHT22;49686;51.880;5.632;2023-02-28T07:02:38;-0.50;99.90
63537;DHT22;49686;51.880;5.632;2023-02-28T07:05:08;-0.40;99.90
63537;DHT22;49686;51.880;5.632;2023-02-28T07:07:35;-0.40;99.90
63537;DHT22;49686;51.880;5.632;2023-02-28T07:10:05;-0.30;99.90
63537;DHT22;49686;51.880;5.632;2023-02-28T07:12:32;-0.30;99.90
63537;DHT22;49686;51.880;5.632;2023-02-28T07:14:59;-0.30;99.90
63537;DHT22;49686;51.880;5.632;2023-02-28T07:17:27;-0.20;99.90
63537;DHT22;49686;51.880;5.632;2023-02-28T07:19:53;-0.20;99.90
63537;DHT22;49686;51.880;5.632;2023-02-28T07:22:20;-0.20;99.90
63537;DHT22;49686;51.880;5.632;2023-02-28T07:24:49;-0.20;99.90
63537;DHT22;49686;51.880;5.632;2023-02-28T07:27:15;-0.10;99.90
63537;DHT22;49686;51.880;5.632;2023-02-28T07:29:42;0.00;99.90
63537;DHT22;49686;51.880;5.632;2023-02-28T07:32:09;0.10;99.90
63537;DHT22;49686;51.880;5.632;2023-02-28T07:34:37;0.10;99.90
63537;DHT22;49686;51.880;5.632;2023-02-28T07:37:04;0.20;99.90
63537;DHT22;49686;51.880;5.632;2023-02-28T07:39:31;0.30;99.90
63537;DHT22;49686;51.880;5.632;2023-02-28T07:41:57;0.60;99.90
63537;DHT22;49686;51.880;5.632;2023-02-28T07:44:24;0.70;99.90
63537;DHT22;49686;51.880;5.632;2023-02-28T07:46:51;1.20;99.90
63537;DHT22;49686;51.880;5.632;2023-02-28T07:49:18;1.20;99.90
63537;DHT22;49686;51.880;5.632;2023-02-28T07:51:46;1.40;99.90
63537;DHT22;49686;51.880;5.632;2023-02-28T07:54:13;1.40;99.90
63537;DHT22;49686;51.880;5.632;2023-02-28T07:56:40;1.60;99.90
63537;DHT22;49686;51.880;5.632;2023-02-28T07:59:07;1.90;99.90
63537;DHT22;49686;51.880;5.632;2023-02-28T08:01:34;1.90;99.90
63537;DHT22;49686;51.880;5.632;2023-02-28T08:04:00;1.70;99.90
63537;DHT22;49686;51.880;5.632;2023-02-28T08:06:27;1.70;99.90
63537;DHT22;49686;51.880;5.632;2023-02-28T08:08:56;1.60;99.90
63537;DHT22;49686;51.880;5.632;2023-02-28T08:11:22;1.60;99.90
63537;DHT22;49686;51.880;5.632;2023-02-28T08:13:49;1.10;99.90
63537;DHT22;49686;51.880;5.632;2023-02-28T08:16:16;1.00;99.90
63537;DHT22;49686;51.880;5.632;2023-02-28T08:18:43;1.10;99.90
63537;DHT22;49686;51.880;5.632;2023-02-28T08:21:10;1.30;99.90
63537;DHT22;49686;51.880;5.632;2023-02-28T08:23:37;1.60;99.90
63537;DHT22;49686;51.880;5.632;2023-02-28T08:26:05;1.70;99.90
63537;DHT22;49686;51.880;5.632;2023-02-28T08:28:33;1.80;99.90
63537;DHT22;49686;51.880;5.632;2023-02-28T08:30:59;1.80;99.90
63537;DHT22;49686;51.880;5.632;2023-02-28T08:33:27;2.00;99.90
63537;DHT22;49686;51.880;5.632;2023-02-28T08:35:55;2.00;99.90
63537;DHT22;49686;51.880;5.632;2023-02-28T08:38:22;2.10;99.90
63537;DHT22;49686;51.880;5.632;2023-02-28T08:40:50;2.20;99.90
63537;DHT22;49686;51.880;5.632;2023-02-28T08:43:19;2.00;99.90
63537;DHT22;49686;51.880;5.632;2023-02-28T08:45:46;2.50;99.90
63537;DHT22;49686;51.880;5.632;2023-02-28T08:48:13;2.40;99.40
63537;DHT22;49686;51.880;5.632;2023-02-28T08:50:39;2.00;98.50
63537;DHT22;49686;51.880;5.632;2023-02-28T08:53:06;2.30;98.30
63537;DHT22;49686;51.880;5.632;2023-02-28T08:55:33;2.20;96.60
63537;DHT22;49686;51.880;5.632;2023-02-28T08:58:00;2.50;98.00
63537;DHT22;49686;51.880;5.632;2023-02-28T09:00:28;2.30;96.90
63537;DHT22;49686;51.880;5.632;2023-02-28T09:02:55;2.30;97.50
63537;DHT22;49686;51.880;5.632;2023-02-28T09:05:22;2.40;97.40
63537;DHT22;49686;51.880;5.632;2023-02-28T09:07:49;2.50;96.70
63537;DHT22;49686;51.880;5.632;2023-02-28T09:10:16;2.10;96.40
63537;DHT22;49686;51.880;5.632;2023-02-28T09:12:43;2.10;96.10
63537;DHT22;49686;51.880;5.632;2023-02-28T09:15:11;2.30;96.70
63537;DHT22;49686;51.880;5.632;2023-02-28T09:17:39;2.20;95.20
63537;DHT22;49686;51.880;5.632;2023-02-28T09:20:07;2.30;94.70
63537;DHT22;49686;51.880;5.632;2023-02-28T09:22:34;2.40;94.30
63537;DHT22;49686;51.880;5.632;2023-02-28T09:25:01;2.60;94.10
63537;DHT22;49686;51.880;5.632;2023-02-28T09:27:28;2.20;93.80
63537;DHT22;49686;51.880;5.632;2023-02-28T09:30:01;2.30;94.10
63537;DHT22;49686;51.880;5.632;2023-02-28T09:32:28;2.50;94.70
63537;DHT22;49686;51.880;5.632;2023-02-28T09:34:56;2.40;94.20
63537;DHT22;49686;51.880;5.632;2023-02-28T09:37:25;2.60;93.70
63537;DHT22;49686;51.880;5.632;2023-02-28T09:39:52;2.70;93.00
63537;DHT22;49686;51.880;5.632;2023-02-28T09:42:23;2.30;91.60
63537;DHT22;49686;51.880;5.632;2023-02-28T09:44:51;2.40;92.10
63537;DHT22;49686;51.880;5.632;2023-02-28T09:47:28;2.40;91.40
63537;DHT22;49686;51.880;5.632;2023-02-28T09:49:59;2.80;91.40
63537;DHT22;49686;51.880;5.632;2023-02-28T09:52:31;3.00;91.50
63537;DHT22;49686;51.880;5.632;2023-02-28T09:55:01;3.10;91.50
63537;DHT22;49686;51.880;5.632;2023-02-28T09:57:37;2.70;91.00
63537;DHT22;49686;51.880;5.632;2023-02-28T10:00:13;2.60;91.20
63537;DHT22;49686;51.880;5.632;2023-02-28T10:03:03;2.60;92.00
63537;DHT22;49686;51.880;5.632;2023-02-28T10:05:36;2.70;91.20
63537;DHT22;49686;51.880;5.632;2023-02-28T10:08:10;2.60;91.30
63537;DHT22;49686;51.880;5.632;2023-02-28T10:10:44;3.00;90.90
63537;DHT22;49686;51.880;5.632;2023-02-28T10:13:17;2.90;90.60
63537;DHT22;49686;51.880;5.632;2023-02-28T10:15:48;2.80;91.20
63537;DHT22;49686;51.880;5.632;2023-02-28T10:18:21;3.20;91.10
63537;DHT22;49686;51.880;5.632;2023-02-28T10:20:51;3.20;90.90
63537;DHT22;49686;51.880;5.632;2023-02-28T10:23:21;3.00;91.30
63537;DHT22;49686;51.880;5.632;2023-02-28T10:25:53;2.70;90.70
63537;DHT22;49686;51.880;5.632;2023-02-28T10:28:21;3.00;91.70
63537;DHT22;49686;51.880;5.632;2023-02-28T10:30:50;3.40;91.50
63537;DHT22;49686;51.880;5.632;2023-02-28T10:33:22;3.30;89.90
63537;DHT22;49686;51.880;5.632;2023-02-28T10:35:51;3.20;90.70
63537;DHT22;49686;51.880;5.632;2023-02-28T10:38:23;3.40;90.50
63537;DHT22;49686;51.880;5.632;2023-02-28T10:40:50;3.60;91.10
63537;DHT22;49686;51.880;5.632;2023-02-28T10:43:22;3.60;90.60
63537;DHT22;49686;51.880;5.632;2023-02-28T10:45:56;3.70;90.10
63537;DHT22;49686;51.880;5.632;2023-02-28T10:48:33;3.60;89.00
63537;DHT22;49686;51.880;5.632;2023-02-28T10:51:03;3.60;88.20
63537;DHT22;49686;51.880;5.632;2023-02-28T10:53:39;3.90;89.20
63537;DHT22;49686;51.880;5.632;2023-02-28T10:56:27;4.00;87.40
63537;DHT22;49686;51.880;5.632;2023-02-28T10:58:55;3.40;88.40
63537;DHT22;49686;51.880;5.632;2023-02-28T11:01:23;3.40;88.90
63537;DHT22;49686;51.880;5.632;2023-02-28T11:03:51;3.60;88.00
63537;DHT22;49686;51.880;5.632;2023-02-28T11:06:22;3.70;88.60
63537;DHT22;49686;51.880;5.632;2023-02-28T11:08:52;4.00;88.70
63537;DHT22;49686;51.880;5.632;2023-02-28T11:11:20;4.40;87.10
63537;DHT22;49686;51.880;5.632;2023-02-28T11:13:51;3.70;87.70
63537;DHT22;49686;51.880;5.632;2023-02-28T11:16:20;3.90;89.70
63537;DHT22;49686;51.880;5.632;2023-02-28T11:18:49;4.00;89.10
63537;DHT22;49686;51.880;5.632;2023-02-28T11:21:26;4.30;88.20
63537;DHT22;49686;51.880;5.632;2023-02-28T11:24:01;3.80;88.20
63537;DHT22;49686;51.880;5.632;2023-02-28T11:26:36;4.10;87.70
63537;DHT22;49686;51.880;5.632;2023-02-28T11:29:12;4.10;87.30
63537;DHT22;49686;51.880;5.632;2023-02-28T11:31:39;4.20;87.30
63537;DHT22;49686;51.880;5.632;2023-02-28T11:34:22;4.30;87.10
63537;DHT22;49686;51.880;5.632;2023-02-28T11:36:51;4.40;86.20
63537;DHT22;49686;51.880;5.632;2023-02-28T11:39:20;4.10;86.10
63537;DHT22;49686;51.880;5.632;2023-02-28T11:44:54;4.20;86.90
63537;DHT22;49686;51.880;5.632;2023-02-28T11:47:32;3.70;86.70
63537;DHT22;49686;51.880;5.632;2023-02-28T11:50:19;3.60;86.30
63537;DHT22;49686;51.880;5.632;2023-02-28T11:52:53;3.80;86.30
63537;DHT22;49686;51.880;5.632;2023-02-28T11:55:24;4.40;87.60
63537;DHT22;49686;51.880;5.632;2023-02-28T11:58:03;4.30;84.40
63537;DHT22;49686;51.880;5.632;2023-02-28T12:00:40;4.30;83.40
63537;DHT22;49686;51.880;5.632;2023-02-28T12:03:18;4.80;85.60
63537;DHT22;49686;51.880;5.632;2023-02-28T12:05:54;3.90;83.80
63537;DHT22;49686;51.880;5.632;2023-02-28T12:08:37;4.40;84.40
63537;DHT22;49686;51.880;5.632;2023-02-28T12:11:14;4.20;84.20
63537;DHT22;49686;51.880;5.632;2023-02-28T12:13:48;4.60;84.40
63537;DHT22;49686;51.880;5.632;2023-02-28T12:16:33;4.70;83.60
63537;DHT22;49686;51.880;5.632;2023-02-28T12:19:13;4.00;82.80
63537;DHT22;49686;51.880;5.632;2023-02-28T12:21:47;4.30;82.60
63537;DHT22;49686;51.880;5.632;2023-02-28T12:24:45;4.70;82.10
63537;DHT22;49686;51.880;5.632;2023-02-28T12:27:18;4.10;81.70
63537;DHT22;49686;51.880;5.632;2023-02-28T12:29:49;4.20;83.50
63537;DHT22;49686;51.880;5.632;2023-02-28T12:32:18;4.20;82.80
63537;DHT22;49686;51.880;5.632;2023-02-28T12:34:50;4.30;83.00
63537;DHT22;49686;51.880;5.632;2023-02-28T12:37:29;4.60;81.20
63537;DHT22;49686;51.880;5.632;2023-02-28T12:40:02;4.40;82.40
63537;DHT22;49686;51.880;5.632;2023-02-28T12:42:31;4.90;82.60
63537;DHT22;49686;51.880;5.632;2023-02-28T12:45:01;5.20;81.80
63537;DHT22;49686;51.880;5.632;2023-02-28T12:47:28;4.40;81.60
63537;DHT22;49686;51.880;5.632;2023-02-28T12:49:58;4.50;83.00
63537;DHT22;49686;51.880;5.632;2023-02-28T12:52:34;4.40;82.50
63537;DHT22;49686;51.880;5.632;2023-02-28T12:55:08;4.50;80.90
63537;DHT22;49686;51.880;5.632;2023-02-28T12:57:41;4.60;81.30
63537;DHT22;49686;51.880;5.632;2023-02-28T13:00:13;5.00;82.50
63537;DHT22;49686;51.880;5.632;2023-02-28T13:03:17;4.80;82.70
63537;DHT22;49686;51.880;5.632;2023-02-28T13:06:08;4.40;81.70
63537;DHT22;49686;51.880;5.632;2023-02-28T13:08:59;4.50;82.80
63537;DHT22;49686;51.880;5.632;2023-02-28T13:11:31;4.40;81.80
63537;DHT22;49686;51.880;5.632;2023-02-28T13:14:00;5.00;82.60
63537;DHT22;49686;51.880;5.632;2023-02-28T13:16:28;4.70;82.00
63537;DHT22;49686;51.880;5.632;2023-02-28T13:19:09;4.70;80.50
63537;DHT22;49686;51.880;5.632;2023-02-28T13:21:43;4.70;82.60
63537;DHT22;49686;51.880;5.632;2023-02-28T13:24:11;4.50;81.40
63537;DHT22;49686;51.880;5.632;2023-02-28T13:27:23;4.80;81.40
63537;DHT22;49686;51.880;5.632;2023-02-28T13:29:51;4.30;81.30
63537;DHT22;49686;51.880;5.632;2023-02-28T13:32:35;4.60;82.30
63537;DHT22;49686;51.880;5.632;2023-02-28T13:38:16;4.60;81.70
63537;DHT22;49686;51.880;5.632;2023-02-28T13:40:44;4.50;82.10
63537;DHT22;49686;51.880;5.632;2023-02-28T13:43:16;4.50;82.90
63537;DHT22;49686;51.880;5.632;2023-02-28T13:46:10;4.30;81.30
63537;DHT22;49686;51.880;5.632;2023-02-28T13:48:37;4.50;82.40
63537;DHT22;49686;51.880;5.632;2023-02-28T13:54:21;4.50;81.80
63537;DHT22;49686;51.880;5.632;2023-02-28T13:56:57;4.40;82.50
63537;DHT22;49686;51.880;5.632;2023-02-28T13:59:31;4.40;80.50
63537;DHT22;49686;51.880;5.632;2023-02-28T14:02:26;4.50;80.50
63537;DHT22;49686;51.880;5.632;2023-02-28T14:05:01;4.60;81.00
63537;DHT22;49686;51.880;5.632;2023-02-28T14:07:31;4.70;81.40
63537;DHT22;49686;51.880;5.632;2023-02-28T14:10:05;4.40;81.20
63537;DHT22;49686;51.880;5.632;2023-02-28T14:13:13;4.60;81.70
63537;DHT22;49686;51.880;5.632;2023-02-28T14:15:45;4.20;81.10
63537;DHT22;49686;51.880;5.632;2023-02-28T14:18:31;4.40;80.90
63537;DHT22;49686;51.880;5.632;2023-02-28T14:21:14;4.40;81.90
63537;DHT22;49686;51.880;5.632;2023-02-28T14:27:06;4.20;81.30
63537;DHT22;49686;51.880;5.632;2023-02-28T14:30:04;4.30;81.80
63537;DHT22;49686;51.880;5.632;2023-02-28T14:32:46;4.20;80.90
63537;DHT22;49686;51.880;5.632;2023-02-28T14:35:22;4.40;80.80
63537;DHT22;49686;51.880;5.632;2023-02-28T14:37:53;4.20;81.40
63537;DHT22;49686;51.880;5.632;2023-02-28T14:40:25;4.10;81.10
63537;DHT22;49686;51.880;5.632;2023-02-28T14:42:56;4.30;82.80
63537;DHT22;49686;51.880;5.632;2023-02-28T14:45:26;4.20;81.70
63537;DHT22;49686;51.880;5.632;2023-02-28T14:47:57;4.20;81.10
63537;DHT22;49686;51.880;5.632;2023-02-28T14:50:27;4.20;82.70
63537;DHT22;49686;51.880;5.632;2023-02-28T14:52:55;4.30;81.90
63537;DHT22;49686;51.880;5.632;2023-02-28T14:55:26;4.30;82.10
63537;DHT22;49686;51.880;5.632;2023-02-28T14:57:56;4.30;81.60
63537;DHT22;49686;51.880;5.632;2023-02-28T15:00:25;4.60;82.10
63537;DHT22;49686;51.880;5.632;2023-02-28T15:02:53;4.30;82.10
63537;DHT22;49686;51.880;5.632;2023-02-28T15:05:26;4.50;80.70
63537;DHT22;49686;51.880;5.632;2023-02-28T15:08:05;4.00;79.80
63537;DHT22;49686;51.880;5.632;2023-02-28T15:10:33;4.10;81.20
63537;DHT22;49686;51.880;5.632;2023-02-28T15:13:02;4.10;82.10
63537;DHT22;49686;51.880;5.632;2023-02-28T15:15:40;4.00;81.80
63537;DHT22;49686;51.880;5.632;2023-02-28T15:18:33;4.00;81.60
63537;DHT22;49686;51.880;5.632;2023-02-28T15:21:07;3.80;81.00
63537;DHT22;49686;51.880;5.632;2023-02-28T15:23:36;3.80;82.20
63537;DHT22;49686;51.880;5.632;2023-02-28T15:26:04;3.90;82.80
63537;DHT22;49686;51.880;5.632;2023-02-28T15:28:31;3.90;82.40
63537;DHT22;49686;51.880;5.632;2023-02-28T15:31:00;3.80;82.30
63537;DHT22;49686;51.880;5.632;2023-02-28T15:33:28;3.70;82.80
63537;DHT22;49686;51.880;5.632;2023-02-28T15:36:11;3.70;83.40
63537;DHT22;49686;51.880;5.632;2023-02-28T15:38:42;3.70;83.60
63537;DHT22;49686;51.880;5.632;2023-02-28T15:41:16;3.60;84.00
63537;DHT22;49686;51.880;5.632;2023-02-28T15:43:47;3.50;83.10
63537;DHT22;49686;51.880;5.632;2023-02-28T15:46:14;3.50;83.80
63537;DHT22;49686;51.880;5.632;2023-02-28T15:48:44;3.50;83.90
63537;DHT22;49686;51.880;5.632;2023-02-28T15:51:17;3.60;84.50
63537;DHT22;49686;51.880;5.632;2023-02-28T15:53:48;3.60;84.30
63537;DHT22;49686;51.880;5.632;2023-02-28T15:56:22;3.50;83.90
63537;DHT22;49686;51.880;5.632;2023-02-28T15:58:50;3.50;85.00
63537;DHT22;49686;51.880;5.632;2023-02-28T16:01:20;3.50;84.90
63537;DHT22;49686;51.880;5.632;2023-02-28T16:03:52;3.40;86.30
63537;DHT22;49686;51.880;5.632;2023-02-28T16:06:36;3.40;85.20
63537;DHT22;49686;51.880;5.632;2023-02-28T16:09:06;3.40;84.70
63537;DHT22;49686;51.880;5.632;2023-02-28T16:11:35;3.30;85.10
63537;DHT22;49686;51.880;5.632;2023-02-28T16:14:03;3.30;86.00
63537;DHT22;49686;51.880;5.632;2023-02-28T16:16:31;3.30;86.80
63537;DHT22;49686;51.880;5.632;2023-02-28T16:18:58;3.30;87.40